sensor_id;sensor_type;location;lat;lon;timestamp;P1;durP1;ratioP1;P2;durP2;ratioP2
3849;SDS011;1940;51.052;13.678;2022-11-13T00:03:35;20.20;;;12.03;;
3849;SDS011;1940;51.052;13.678;2022-11-13T00:06:01;22.90;;;12.13;;
3849;SDS011;1940;51.052;13.678;2022-11-13T00:08:27;23.40;;;12.30;;
3849;SDS011;1940;51.052;13.678;2022-11-13T00:11:03;22.00;;;10.87;;
3849;SDS011;1940;51.052;13.678;2022-11-13T00:13:30;25.27;;;12.33;;
3849;SDS011;1940;51.052;13.678;2022-11-13T00:15:57;23.20;;;12.40;;
3849;SDS011;1940;51.052;13.678;2022-11-13T00:18:28;20.50;;;11.43;;
3849;SDS011;1940;51.052;13.678;2022-11-13T00:20:55;23.77;;;12.13;;
3849;SDS011;1940;51.052;13.678;2022-11-13T00:23:21;23.13;;;11.03;;
3849;SDS011;1940;51.052;13.678;2022-11-13T00:25:47;23.50;;;12.53;;
3849;SDS011;1940;51.052;13.678;2022-11-13T00:28:12;24.23;;;12.43;;
3849;SDS011;1940;51.052;13.678;2022-11-13T00:30:38;21.30;;;11.53;;
3849;SDS011;1940;51.052;13.678;2022-11-13T00:33:04;24.20;;;12.60;;
3849;SDS011;1940;51.052;13.678;2022-11-13T00:35:30;24.47;;;12.90;;
3849;SDS011;1940;51.052;13.678;2022-11-13T00:37:56;25.63;;;13.10;;
3849;SDS011;1940;51.052;13.678;2022-11-13T00:40:22;20.90;;;11.80;;
3849;SDS011;1940;51.052;13.678;2022-11-13T00:42:47;24.07;;;11.63;;
3849;SDS011;1940;51.052;13.678;2022-11-13T00:45:13;20.70;;;11.97;;
3849;SDS011;1940;51.052;13.678;2022-11-13T00:47:38;23.90;;;12.67;;
3849;SDS011;1940;51.052;13.678;2022-11-13T00:50:04;27.70;;;13.50;;
3849;SDS011;1940;51.052;13.678;2022-11-13T00:52:30;22.63;;;11.70;;
3849;SDS011;1940;51.052;13.678;2022-11-13T00:54:55;24.03;;;12.17;;
3849;SDS011;1940;51.052;13.678;2022-11-13T00:57:21;21.20;;;11.80;;
3849;SDS011;1940;51.052;13.678;2022-11-13T00:59:46;26.93;;;12.63;;
3849;SDS011;1940;51.052;13.678;2022-11-13T01:02:12;22.80;;;12.07;;
3849;SDS011;1940;51.052;13.678;2022-11-13T01:04:39;23.93;;;11.43;;
3849;SDS011;1940;51.052;13.678;2022-11-13T01:07:05;20.43;;;10.73;;
3849;SDS011;1940;51.052;13.678;2022-11-13T01:09:31;20.27;;;10.73;;
3849;SDS011;1940;51.052;13.678;2022-11-13T01:11:56;24.83;;;11.67;;
3849;SDS011;1940;51.052;13.678;2022-11-13T01:14:22;22.60;;;11.50;;
3849;SDS011;1940;51.052;13.678;2022-11-13T01:16:48;22.20;;;11.43;;
3849;SDS011;1940;51.052;13.678;2022-11-13T01:19:13;23.63;;;11.03;;
3849;SDS011;1940;51.052;13.678;2022-11-13T01:21:39;23.90;;;11.70;;
3849;SDS011;1940;51.052;13.678;2022-11-13T01:24:04;23.90;;;11.43;;
3849;SDS011;1940;51.052;13.678;2022-11-13T01:26:30;19.87;;;11.23;;
3849;SDS011;1940;51.052;13.678;2022-11-13T01:28:56;18.70;;;10.17;;
3849;SDS011;1940;51.052;13.678;2022-11-13T01:31:24;21.17;;;9.97;;
3849;SDS011;1940;51.052;13.678;2022-11-13T01:33:52;22.50;;;10.20;;
3849;SDS011;1940;51.052;13.678;2022-11-13T01:36:21;21.83;;;9.20;;
3849;SDS011;1940;51.052;13.678;2022-11-13T01:38:49;23.07;;;10.07;;
3849;SDS011;1940;51.052;13.678;2022-11-13T01:41:26;18.57;;;9.00;;
3849;SDS011;1940;51.052;13.678;2022-11-13T01:43:54;24.20;;;10.20;;
3849;SDS011;1940;51.052;13.678;2022-11-13T01:46:31;19.43;;;9.23;;
3849;SDS011;1940;51.052;13.678;2022-11-13T01:51:49;30.93;;;9.47;;
3849;SDS011;1940;51.052;13.678;2022-11-13T01:54:30;21.87;;;8.87;;
3849;SDS011;1940;51.052;13.678;2022-11-13T01:57:01;29.80;;;9.13;;
3849;SDS011;1940;51.052;13.678;2022-11-13T01:59:29;25.83;;;9.03;;
3849;SDS011;1940;51.052;13.678;2022-11-13T02:02:00;20.60;;;9.50;;
3849;SDS011;1940;51.052;13.678;2022-11-13T02:04:26;23.93;;;8.40;;
3849;SDS011;1940;51.052;13.678;2022-11-13T02:06:59;23.47;;;8.77;;
3849;SDS011;1940;51.052;13.678;2022-11-13T02:09:29;33.17;;;9.17;;
3849;SDS011;1940;51.052;13.678;2022-11-13T02:11:59;30.63;;;9.13;;
3849;SDS011;1940;51.052;13.678;2022-11-13T02:14:25;18.33;;;8.30;;
3849;SDS011;1940;51.052;13.678;2022-11-13T02:16:54;36.37;;;9.80;;
3849;SDS011;1940;51.052;13.678;2022-11-13T02:19:24;25.63;;;9.73;;
3849;SDS011;1940;51.052;13.678;2022-11-13T02:24:31;38.80;;;8.80;;
3849;SDS011;1940;51.052;13.678;2022-11-13T02:27:03;44.20;;;9.83;;
3849;SDS011;1940;51.052;13.678;2022-11-13T02:29:32;43.00;;;9.80;;
3849;SDS011;1940;51.052;13.678;2022-11-13T02:31:58;29.13;;;10.20;;
3849;SDS011;1940;51.052;13.678;2022-11-13T02:34:23;32.73;;;11.27;;
3849;SDS011;1940;51.052;13.678;2022-11-13T02:36:49;22.67;;;10.20;;
3849;SDS011;1940;51.052;13.678;2022-11-13T02:39:15;30.80;;;11.10;;
3849;SDS011;1940;51.052;13.678;2022-11-13T02:41:41;31.23;;;10.90;;
3849;SDS011;1940;51.052;13.678;2022-11-13T02:44:06;27.57;;;10.30;;
3849;SDS011;1940;51.052;13.678;2022-11-13T02:46:33;29.20;;;9.63;;
3849;SDS011;1940;51.052;13.678;2022-11-13T02:48:58;27.07;;;11.20;;
3849;SDS011;1940;51.052;13.678;2022-11-13T02:51:24;20.80;;;9.40;;
3849;SDS011;1940;51.052;13.678;2022-11-13T02:53:50;20.73;;;9.37;;
3849;SDS011;1940;51.052;13.678;2022-11-13T02:56:16;39.87;;;10.20;;
3849;SDS011;1940;51.052;13.678;2022-11-13T02:58:42;25.10;;;10.53;;
3849;SDS011;1940;51.052;13.678;2022-11-13T03:01:07;24.90;;;9.80;;
3849;SDS011;1940;51.052;13.678;2022-11-13T03:03:33;29.00;;;11.57;;
3849;SDS011;1940;51.052;13.678;2022-11-13T03:05:58;18.07;;;9.70;;
3849;SDS011;1940;51.052;13.678;2022-11-13T03:08:24;21.70;;;11.00;;
3849;SDS011;1940;51.052;13.678;2022-11-13T03:10:51;23.20;;;10.60;;
3849;SDS011;1940;51.052;13.678;2022-11-13T03:13:17;24.23;;;10.87;;
3849;SDS011;1940;51.052;13.678;2022-11-13T03:15:42;23.23;;;10.83;;
3849;SDS011;1940;51.052;13.678;2022-11-13T03:18:08;18.00;;;10.10;;
3849;SDS011;1940;51.052;13.678;2022-11-13T03:20:36;28.70;;;11.40;;
3849;SDS011;1940;51.052;13.678;2022-11-13T03:23:03;22.00;;;11.10;;
3849;SDS011;1940;51.052;13.678;2022-11-13T03:25:29;22.00;;;11.33;;
3849;SDS011;1940;51.052;13.678;2022-11-13T03:27:55;18.80;;;10.03;;
3849;SDS011;1940;51.052;13.678;2022-11-13T03:30:20;19.83;;;10.17;;
3849;SDS011;1940;51.052;13.678;2022-11-13T03:32:46;21.23;;;10.40;;
3849;SDS011;1940;51.052;13.678;2022-11-13T03:35:12;20.77;;;10.23;;
3849;SDS011;1940;51.052;13.678;2022-11-13T03:37:37;20.67;;;9.40;;
3849;SDS011;1940;51.052;13.678;2022-11-13T03:40:03;18.63;;;9.97;;
3849;SDS011;1940;51.052;13.678;2022-11-13T03:42:29;22.80;;;10.60;;
3849;SDS011;1940;51.052;13.678;2022-11-13T03:44:55;24.13;;;10.97;;
3849;SDS011;1940;51.052;13.678;2022-11-13T03:47:20;17.30;;;9.33;;
3849;SDS011;1940;51.052;13.678;2022-11-13T03:49:46;16.37;;;8.60;;
3849;SDS011;1940;51.052;13.678;2022-11-13T03:52:12;19.57;;;9.40;;
3849;SDS011;1940;51.052;13.678;2022-11-13T03:54:37;19.33;;;9.23;;
3849;SDS011;1940;51.052;13.678;2022-11-13T03:57:03;19.77;;;10.20;;
3849;SDS011;1940;51.052;13.678;2022-11-13T03:59:28;16.47;;;8.57;;
3849;SDS011;1940;51.052;13.678;2022-11-13T04:01:54;17.30;;;8.77;;
3849;SDS011;1940;51.052;13.678;2022-11-13T04:04:20;20.07;;;8.90;;
3849;SDS011;1940;51.052;13.678;2022-11-13T04:06:46;16.73;;;8.63;;
3849;SDS011;1940;51.052;13.678;2022-11-13T04:09:11;17.77;;;9.23;;
3849;SDS011;1940;51.052;13.678;2022-11-13T04:11:37;16.50;;;8.23;;
3849;SDS011;1940;51.052;13.678;2022-11-13T04:14:02;18.00;;;8.77;;
3849;SDS011;1940;51.052;13.678;2022-11-13T04:16:28;15.17;;;7.80;;
3849;SDS011;1940;51.052;13.678;2022-11-13T04:18:53;15.73;;;8.57;;
3849;SDS011;1940;51.052;13.678;2022-11-13T04:21:19;16.60;;;8.50;;
3849;SDS011;1940;51.052;13.678;2022-11-13T04:23:44;15.60;;;8.97;;
3849;SDS011;1940;51.052;13.678;2022-11-13T04:26:10;17.33;;;8.67;;
3849;SDS011;1940;51.052;13.678;2022-11-13T04:28:35;13.73;;;7.93;;
3849;SDS011;1940;51.052;13.678;2022-11-13T04:31:01;15.57;;;8.67;;
3849;SDS011;1940;51.052;13.678;2022-11-13T04:33:26;14.43;;;8.10;;
3849;SDS011;1940;51.052;13.678;2022-11-13T04:35:52;16.80;;;8.43;;
3849;SDS011;1940;51.052;13.678;2022-11-13T04:38:17;16.27;;;8.90;;
3849;SDS011;1940;51.052;13.678;2022-11-13T04:40:43;13.70;;;8.27;;
3849;SDS011;1940;51.052;13.678;2022-11-13T04:43:09;17.03;;;7.70;;
3849;SDS011;1940;51.052;13.678;2022-11-13T04:45:35;14.67;;;7.67;;
3849;SDS011;1940;51.052;13.678;2022-11-13T04:48:01;16.33;;;8.10;;
3849;SDS011;1940;51.052;13.678;2022-11-13T04:50:26;19.93;;;8.50;;
3849;SDS011;1940;51.052;13.678;2022-11-13T04:52:52;16.00;;;8.60;;
3849;SDS011;1940;51.052;13.678;2022-11-13T04:55:18;18.27;;;8.27;;
3849;SDS011;1940;51.052;13.678;2022-11-13T04:57:43;15.67;;;8.13;;
3849;SDS011;1940;51.052;13.678;2022-11-13T05:00:09;16.70;;;8.50;;
3849;SDS011;1940;51.052;13.678;2022-11-13T05:02:35;14.90;;;8.20;;
3849;SDS011;1940;51.052;13.678;2022-11-13T05:05:01;16.03;;;7.93;;
3849;SDS011;1940;51.052;13.678;2022-11-13T05:07:26;15.60;;;8.10;;
3849;SDS011;1940;51.052;13.678;2022-11-13T05:09:52;18.47;;;7.53;;
3849;SDS011;1940;51.052;13.678;2022-11-13T05:12:18;14.27;;;7.60;;
3849;SDS011;1940;51.052;13.678;2022-11-13T05:14:44;13.93;;;7.30;;
3849;SDS011;1940;51.052;13.678;2022-11-13T05:17:10;14.17;;;7.70;;
3849;SDS011;1940;51.052;13.678;2022-11-13T05:19:37;12.70;;;6.97;;
3849;SDS011;1940;51.052;13.678;2022-11-13T05:22:03;14.80;;;7.43;;
3849;SDS011;1940;51.052;13.678;2022-11-13T05:24:29;12.43;;;6.70;;
3849;SDS011;1940;51.052;13.678;2022-11-13T05:26:55;15.13;;;6.87;;
3849;SDS011;1940;51.052;13.678;2022-11-13T05:29:20;11.50;;;6.70;;
3849;SDS011;1940;51.052;13.678;2022-11-13T05:31:47;13.30;;;6.90;;
3849;SDS011;1940;51.052;13.678;2022-11-13T05:34:12;10.50;;;7.00;;
3849;SDS011;1940;51.052;13.678;2022-11-13T05:36:38;12.70;;;6.40;;
3849;SDS011;1940;51.052;13.678;2022-11-13T05:39:04;13.37;;;6.50;;
3849;SDS011;1940;51.052;13.678;2022-11-13T05:41:29;12.10;;;7.20;;
3849;SDS011;1940;51.052;13.678;2022-11-13T05:43:56;12.07;;;6.67;;
3849;SDS011;1940;51.052;13.678;2022-11-13T05:46:23;13.40;;;7.47;;
3849;SDS011;1940;51.052;13.678;2022-11-13T05:48:51;11.90;;;7.30;;
3849;SDS011;1940;51.052;13.678;2022-11-13T05:51:27;12.43;;;6.67;;
3849;SDS011;1940;51.052;13.678;2022-11-13T05:53:54;12.63;;;6.90;;
3849;SDS011;1940;51.052;13.678;2022-11-13T05:56:21;15.07;;;6.50;;
3849;SDS011;1940;51.052;13.678;2022-11-13T05:58:48;12.33;;;6.40;;
3849;SDS011;1940;51.052;13.678;2022-11-13T06:01:19;14.67;;;7.17;;
3849;SDS011;1940;51.052;13.678;2022-11-13T06:03:47;10.77;;;6.20;;
3849;SDS011;1940;51.052;13.678;2022-11-13T06:06:14;11.17;;;6.10;;
3849;SDS011;1940;51.052;13.678;2022-11-13T06:08:42;14.97;;;7.30;;
3849;SDS011;1940;51.052;13.678;2022-11-13T06:11:09;14.53;;;7.73;;
3849;SDS011;1940;51.052;13.678;2022-11-13T06:13:37;16.33;;;6.93;;
3849;SDS011;1940;51.052;13.678;2022-11-13T06:16:04;13.37;;;6.87;;
3849;SDS011;1940;51.052;13.678;2022-11-13T06:18:37;13.90;;;7.07;;
3849;SDS011;1940;51.052;13.678;2022-11-13T06:21:05;10.40;;;6.50;;
3849;SDS011;1940;51.052;13.678;2022-11-13T06:23:33;11.50;;;6.23;;
3849;SDS011;1940;51.052;13.678;2022-11-13T06:26:01;15.83;;;7.17;;
3849;SDS011;1940;51.052;13.678;2022-11-13T06:28:27;20.93;;;6.73;;
3849;SDS011;1940;51.052;13.678;2022-11-13T06:30:53;13.03;;;6.73;;
3849;SDS011;1940;51.052;13.678;2022-11-13T06:33:19;12.83;;;6.50;;
3849;SDS011;1940;51.052;13.678;2022-11-13T06:35:44;13.00;;;6.70;;
3849;SDS011;1940;51.052;13.678;2022-11-13T06:38:10;12.47;;;6.47;;
3849;SDS011;1940;51.052;13.678;2022-11-13T06:40:36;14.33;;;6.77;;
3849;SDS011;1940;51.052;13.678;2022-11-13T06:43:02;12.53;;;6.40;;
3849;SDS011;1940;51.052;13.678;2022-11-13T06:45:28;13.00;;;6.67;;
3849;SDS011;1940;51.052;13.678;2022-11-13T06:47:53;11.33;;;6.50;;
3849;SDS011;1940;51.052;13.678;2022-11-13T06:50:19;12.23;;;6.90;;
3849;SDS011;1940;51.052;13.678;2022-11-13T06:52:45;14.00;;;7.00;;
3849;SDS011;1940;51.052;13.678;2022-11-13T06:55:10;12.40;;;6.80;;
3849;SDS011;1940;51.052;13.678;2022-11-13T06:57:36;17.27;;;7.17;;
3849;SDS011;1940;51.052;13.678;2022-11-13T07:00:01;13.23;;;6.73;;
3849;SDS011;1940;51.052;13.678;2022-11-13T07:02:28;18.30;;;6.33;;
3849;SDS011;1940;51.052;13.678;2022-11-13T07:04:53;12.33;;;6.83;;
3849;SDS011;1940;51.052;13.678;2022-11-13T07:07:19;13.00;;;7.53;;
3849;SDS011;1940;51.052;13.678;2022-11-13T07:09:44;13.13;;;6.80;;
3849;SDS011;1940;51.052;13.678;2022-11-13T07:12:10;12.83;;;6.80;;
3849;SDS011;1940;51.052;13.678;2022-11-13T07:14:35;12.97;;;6.83;;
3849;SDS011;1940;51.052;13.678;2022-11-13T07:17:01;13.63;;;6.60;;
3849;SDS011;1940;51.052;13.678;2022-11-13T07:19:26;9.07;;;5.33;;
3849;SDS011;1940;51.052;13.678;2022-11-13T07:21:52;12.87;;;6.60;;
3849;SDS011;1940;51.052;13.678;2022-11-13T07:24:17;12.10;;;6.90;;
3849;SDS011;1940;51.052;13.678;2022-11-13T07:26:43;15.63;;;7.40;;
3849;SDS011;1940;51.052;13.678;2022-11-13T07:29:08;11.00;;;7.07;;
3849;SDS011;1940;51.052;13.678;2022-11-13T07:31:34;14.47;;;7.13;;
3849;SDS011;1940;51.052;13.678;2022-11-13T07:33:59;10.93;;;6.43;;
3849;SDS011;1940;51.052;13.678;2022-11-13T07:36:25;14.80;;;6.70;;
3849;SDS011;1940;51.052;13.678;2022-11-13T07:38:50;14.30;;;6.90;;
3849;SDS011;1940;51.052;13.678;2022-11-13T07:41:16;10.87;;;6.30;;
3849;SDS011;1940;51.052;13.678;2022-11-13T07:43:42;11.30;;;6.03;;
3849;SDS011;1940;51.052;13.678;2022-11-13T07:46:07;11.30;;;6.67;;
3849;SDS011;1940;51.052;13.678;2022-11-13T07:48:33;12.07;;;6.20;;
3849;SDS011;1940;51.052;13.678;2022-11-13T07:50:59;12.27;;;6.00;;
3849;SDS011;1940;51.052;13.678;2022-11-13T07:53:26;10.03;;;6.10;;
3849;SDS011;1940;51.052;13.678;2022-11-13T07:55:51;12.17;;;5.60;;
3849;SDS011;1940;51.052;13.678;2022-11-13T07:58:17;12.83;;;6.07;;
3849;SDS011;1940;51.052;13.678;2022-11-13T08:00:43;8.77;;;5.10;;
3849;SDS011;1940;51.052;13.678;2022-11-13T08:03:11;8.00;;;5.10;;
3849;SDS011;1940;51.052;13.678;2022-11-13T08:05:38;9.93;;;5.20;;
3849;SDS011;1940;51.052;13.678;2022-11-13T08:08:04;9.40;;;5.40;;
3849;SDS011;1940;51.052;13.678;2022-11-13T08:10:29;10.30;;;5.57;;
3849;SDS011;1940;51.052;13.678;2022-11-13T08:13:02;10.50;;;5.80;;
3849;SDS011;1940;51.052;13.678;2022-11-13T08:15:30;10.10;;;5.80;;
3849;SDS011;1940;51.052;13.678;2022-11-13T08:17:56;10.40;;;5.93;;
3849;SDS011;1940;51.052;13.678;2022-11-13T08:20:24;9.60;;;5.50;;
3849;SDS011;1940;51.052;13.678;2022-11-13T08:22:50;8.70;;;5.10;;
3849;SDS011;1940;51.052;13.678;2022-11-13T08:25:17;7.17;;;4.87;;
3849;SDS011;1940;51.052;13.678;2022-11-13T08:27:43;10.13;;;6.43;;
3849;SDS011;1940;51.052;13.678;2022-11-13T08:30:08;8.90;;;5.57;;
3849;SDS011;1940;51.052;13.678;2022-11-13T08:32:34;9.20;;;5.83;;
3849;SDS011;1940;51.052;13.678;2022-11-13T08:35:00;10.70;;;5.90;;
3849;SDS011;1940;51.052;13.678;2022-11-13T08:37:25;12.43;;;6.30;;
3849;SDS011;1940;51.052;13.678;2022-11-13T08:39:51;8.47;;;5.43;;
3849;SDS011;1940;51.052;13.678;2022-11-13T08:42:16;8.87;;;5.80;;
3849;SDS011;1940;51.052;13.678;2022-11-13T08:44:42;8.63;;;5.53;;
3849;SDS011;1940;51.052;13.678;2022-11-13T08:47:07;8.80;;;5.70;;
3849;SDS011;1940;51.052;13.678;2022-11-13T08:49:33;8.40;;;5.30;;
3849;SDS011;1940;51.052;13.678;2022-11-13T08:51:59;8.03;;;5.43;;
3849;SDS011;1940;51.052;13.678;2022-11-13T08:54:24;10.10;;;5.73;;
3849;SDS011;1940;51.052;13.678;2022-11-13T08:56:50;8.63;;;5.70;;
3849;SDS011;1940;51.052;13.678;2022-11-13T08:59:15;10.03;;;5.77;;
3849;SDS011;1940;51.052;13.678;2022-11-13T09:01:41;8.73;;;5.30;;
3849;SDS011;1940;51.052;13.678;2022-11-13T09:04:06;9.00;;;5.87;;
3849;SDS011;1940;51.052;13.678;2022-11-13T09:06:32;8.70;;;5.70;;
3849;SDS011;1940;51.052;13.678;2022-11-13T09:08:58;8.63;;;5.70;;
3849;SDS011;1940;51.052;13.678;2022-11-13T09:11:24;8.90;;;5.90;;
3849;SDS011;1940;51.052;13.678;2022-11-13T09:13:52;8.60;;;5.60;;
3849;SDS011;1940;51.052;13.678;2022-11-13T09:16:18;9.87;;;5.60;;
3849;SDS011;1940;51.052;13.678;2022-11-13T09:18:44;8.43;;;5.73;;
3849;SDS011;1940;51.052;13.678;2022-11-13T09:21:12;8.77;;;6.00;;
3849;SDS011;1940;51.052;13.678;2022-11-13T09:23:37;8.37;;;5.50;;
3849;SDS011;1940;51.052;13.678;2022-11-13T09:26:03;10.10;;;6.20;;
3849;SDS011;1940;51.052;13.678;2022-11-13T09:28:29;9.40;;;6.47;;
3849;SDS011;1940;51.052;13.678;2022-11-13T09:30:54;7.10;;;5.60;;
3849;SDS011;1940;51.052;13.678;2022-11-13T09:33:20;9.27;;;5.77;;
3849;SDS011;1940;51.052;13.678;2022-11-13T09:35:45;7.90;;;5.20;;
3849;SDS011;1940;51.052;13.678;2022-11-13T09:38:12;8.70;;;6.00;;
3849;SDS011;1940;51.052;13.678;2022-11-13T09:43:26;9.67;;;5.93;;
3849;SDS011;1940;51.052;13.678;2022-11-13T09:45:59;8.23;;;5.87;;
3849;SDS011;1940;51.052;13.678;2022-11-13T09:48:30;9.00;;;6.00;;
3849;SDS011;1940;51.052;13.678;2022-11-13T09:51:15;8.60;;;5.57;;
3849;SDS011;1940;51.052;13.678;2022-11-13T09:53:44;11.27;;;6.67;;
3849;SDS011;1940;51.052;13.678;2022-11-13T09:56:16;8.47;;;5.77;;
3849;SDS011;1940;51.052;13.678;2022-11-13T10:01:25;9.93;;;6.40;;
3849;SDS011;1940;51.052;13.678;2022-11-13T10:03:57;9.53;;;6.17;;
3849;SDS011;1940;51.052;13.678;2022-11-13T10:06:32;12.77;;;7.70;;
3849;SDS011;1940;51.052;13.678;2022-11-13T10:09:24;10.90;;;6.50;;
3849;SDS011;1940;51.052;13.678;2022-11-13T10:12:06;10.13;;;6.50;;
3849;SDS011;1940;51.052;13.678;2022-11-13T10:14:34;10.03;;;6.10;;
3849;SDS011;1940;51.052;13.678;2022-11-13T10:17:13;8.37;;;5.70;;
3849;SDS011;1940;51.052;13.678;2022-11-13T10:19:55;13.80;;;7.10;;
3849;SDS011;1940;51.052;13.678;2022-11-13T10:22:26;10.63;;;6.60;;
3849;SDS011;1940;51.052;13.678;2022-11-13T10:27:39;11.70;;;6.97;;
3849;SDS011;1940;51.052;13.678;2022-11-13T10:30:10;10.37;;;6.70;;
3849;SDS011;1940;51.052;13.678;2022-11-13T10:32:38;11.00;;;6.30;;
3849;SDS011;1940;51.052;13.678;2022-11-13T10:40:23;11.97;;;6.70;;
3849;SDS011;1940;51.052;13.678;2022-11-13T10:42:53;11.00;;;6.33;;
3849;SDS011;1940;51.052;13.678;2022-11-13T10:45:28;11.30;;;6.80;;
3849;SDS011;1940;51.052;13.678;2022-11-13T10:47:53;10.07;;;6.33;;
3849;SDS011;1940;51.052;13.678;2022-11-13T10:50:21;9.33;;;6.23;;
3849;SDS011;1940;51.052;13.678;2022-11-13T10:52:49;10.27;;;6.30;;
3849;SDS011;1940;51.052;13.678;2022-11-13T10:57:59;7.77;;;5.70;;
3849;SDS011;1940;51.052;13.678;2022-11-13T11:02:56;9.73;;;6.13;;
3849;SDS011;1940;51.052;13.678;2022-11-13T11:05:22;9.03;;;5.63;;
3849;SDS011;1940;51.052;13.678;2022-11-13T11:07:49;9.20;;;5.97;;
3849;SDS011;1940;51.052;13.678;2022-11-13T11:12:53;11.80;;;6.00;;
3849;SDS011;1940;51.052;13.678;2022-11-13T11:15:24;11.57;;;7.00;;
3849;SDS011;1940;51.052;13.678;2022-11-13T11:18:01;10.70;;;6.17;;
3849;SDS011;1940;51.052;13.678;2022-11-13T11:20:47;10.10;;;6.93;;
3849;SDS011;1940;51.052;13.678;2022-11-13T11:23:25;11.03;;;6.30;;
3849;SDS011;1940;51.052;13.678;2022-11-13T11:25:59;11.37;;;6.27;;
3849;SDS011;1940;51.052;13.678;2022-11-13T11:28:42;9.90;;;6.70;;
3849;SDS011;1940;51.052;13.678;2022-11-13T11:31:31;9.90;;;6.53;;
3849;SDS011;1940;51.052;13.678;2022-11-13T11:34:38;11.33;;;6.97;;
3849;SDS011;1940;51.052;13.678;2022-11-13T11:37:12;10.40;;;6.20;;
3849;SDS011;1940;51.052;13.678;2022-11-13T11:45:14;11.03;;;6.47;;
3849;SDS011;1940;51.052;13.678;2022-11-13T11:47:47;14.57;;;7.50;;
3849;SDS011;1940;51.052;13.678;2022-11-13T11:50:17;13.07;;;7.27;;
3849;SDS011;1940;51.052;13.678;2022-11-13T11:53:02;14.30;;;7.70;;
3849;SDS011;1940;51.052;13.678;2022-11-13T11:58:27;11.10;;;7.33;;
3849;SDS011;1940;51.052;13.678;2022-11-13T12:04:20;13.13;;;7.40;;
3849;SDS011;1940;51.052;13.678;2022-11-13T12:12:43;15.50;;;8.10;;
3849;SDS011;1940;51.052;13.678;2022-11-13T12:26:36;14.20;;;7.87;;
3849;SDS011;1940;51.052;13.678;2022-11-13T12:34:47;17.90;;;8.90;;
3849;SDS011;1940;51.052;13.678;2022-11-13T12:37:22;15.47;;;8.63;;
3849;SDS011;1940;51.052;13.678;2022-11-13T12:40:04;15.63;;;8.60;;
3849;SDS011;1940;51.052;13.678;2022-11-13T12:42:33;17.50;;;8.87;;
3849;SDS011;1940;51.052;13.678;2022-11-13T12:48:58;15.37;;;7.90;;
3849;SDS011;1940;51.052;13.678;2022-11-13T12:51:07;17.30;;;9.13;;
3849;SDS011;1940;51.052;13.678;2022-11-13T12:53:51;18.07;;;9.17;;
3849;SDS011;1940;51.052;13.678;2022-11-13T12:59:02;16.47;;;9.20;;
3849;SDS011;1940;51.052;13.678;2022-11-13T13:05:04;16.80;;;9.20;;
3849;SDS011;1940;51.052;13.678;2022-11-13T13:16:41;17.10;;;9.33;;
3849;SDS011;1940;51.052;13.678;2022-11-13T13:19:21;15.33;;;8.03;;
3849;SDS011;1940;51.052;13.678;2022-11-13T13:21:50;18.03;;;9.50;;
3849;SDS011;1940;51.052;13.678;2022-11-13T13:24:29;15.63;;;8.53;;
3849;SDS011;1940;51.052;13.678;2022-11-13T13:26:59;17.33;;;8.90;;
3849;SDS011;1940;51.052;13.678;2022-11-13T13:29:25;16.80;;;9.47;;
3849;SDS011;1940;51.052;13.678;2022-11-13T13:31:58;20.20;;;9.63;;
3849;SDS011;1940;51.052;13.678;2022-11-13T13:40:34;19.13;;;9.33;;
3849;SDS011;1940;51.052;13.678;2022-11-13T13:43:17;18.37;;;9.93;;
3849;SDS011;1940;51.052;13.678;2022-11-13T13:48:38;17.30;;;9.90;;
3849;SDS011;1940;51.052;13.678;2022-11-13T13:53:45;16.93;;;8.80;;
3849;SDS011;1940;51.052;13.678;2022-11-13T13:56:11;19.00;;;10.27;;
3849;SDS011;1940;51.052;13.678;2022-11-13T13:58:38;18.73;;;9.53;;
3849;SDS011;1940;51.052;13.678;2022-11-13T14:01:05;15.60;;;9.10;;
3849;SDS011;1940;51.052;13.678;2022-11-13T14:03:36;20.80;;;10.43;;
3849;SDS011;1940;51.052;13.678;2022-11-13T14:06:35;17.40;;;8.83;;
3849;SDS011;1940;51.052;13.678;2022-11-13T14:08:54;19.70;;;10.43;;
3849;SDS011;1940;51.052;13.678;2022-11-13T14:11:21;21.70;;;10.20;;
3849;SDS011;1940;51.052;13.678;2022-11-13T14:13:53;22.17;;;10.93;;
3849;SDS011;1940;51.052;13.678;2022-11-13T14:16:19;20.57;;;10.13;;
3849;SDS011;1940;51.052;13.678;2022-11-13T14:18:46;19.50;;;10.03;;
3849;SDS011;1940;51.052;13.678;2022-11-13T14:21:13;18.57;;;10.50;;
3849;SDS011;1940;51.052;13.678;2022-11-13T14:23:49;22.60;;;10.57;;
3849;SDS011;1940;51.052;13.678;2022-11-13T14:26:16;17.50;;;9.90;;
3849;SDS011;1940;51.052;13.678;2022-11-13T14:28:59;24.70;;;11.80;;
3849;SDS011;1940;51.052;13.678;2022-11-13T14:31:26;20.80;;;11.20;;
3849;SDS011;1940;51.052;13.678;2022-11-13T14:33:54;19.30;;;10.67;;
3849;SDS011;1940;51.052;13.678;2022-11-13T14:36:26;29.10;;;11.70;;
3849;SDS011;1940;51.052;13.678;2022-11-13T14:38:55;26.90;;;12.47;;
3849;SDS011;1940;51.052;13.678;2022-11-13T14:41:23;21.27;;;11.13;;
3849;SDS011;1940;51.052;13.678;2022-11-13T14:43:56;23.17;;;11.77;;
3849;SDS011;1940;51.052;13.678;2022-11-13T14:46:38;24.07;;;12.33;;
3849;SDS011;1940;51.052;13.678;2022-11-13T14:49:32;22.47;;;11.40;;
3849;SDS011;1940;51.052;13.678;2022-11-13T14:51:59;24.93;;;12.67;;
3849;SDS011;1940;51.052;13.678;2022-11-13T14:54:35;28.63;;;12.63;;
3849;SDS011;1940;51.052;13.678;2022-11-13T14:57:09;27.93;;;12.90;;
3849;SDS011;1940;51.052;13.678;2022-11-13T14:59:37;28.70;;;14.07;;
3849;SDS011;1940;51.052;13.678;2022-11-13T15:02:05;24.37;;;12.00;;
3849;SDS011;1940;51.052;13.678;2022-11-13T15:04:31;23.50;;;12.30;;
3849;SDS011;1940;51.052;13.678;2022-11-13T15:06:58;27.50;;;13.83;;
3849;SDS011;1940;51.052;13.678;2022-11-13T15:09:25;25.53;;;12.70;;
3849;SDS011;1940;51.052;13.678;2022-11-13T15:11:52;25.30;;;13.60;;
3849;SDS011;1940;51.052;13.678;2022-11-13T15:14:18;31.03;;;14.40;;
3849;SDS011;1940;51.052;13.678;2022-11-13T15:16:45;28.13;;;14.20;;
3849;SDS011;1940;51.052;13.678;2022-11-13T15:19:13;28.83;;;13.70;;
3849;SDS011;1940;51.052;13.678;2022-11-13T15:21:58;30.70;;;14.47;;
3849;SDS011;1940;51.052;13.678;2022-11-13T15:24:25;25.97;;;13.93;;
3849;SDS011;1940;51.052;13.678;2022-11-13T15:26:50;27.73;;;14.43;;
3849;SDS011;1940;51.052;13.678;2022-11-13T15:29:17;35.87;;;13.90;;
3849;SDS011;1940;51.052;13.678;2022-11-13T15:31:43;37.70;;;15.60;;
3849;SDS011;1940;51.052;13.678;2022-11-13T15:34:11;26.00;;;13.80;;
3849;SDS011;1940;51.052;13.678;2022-11-13T15:36:38;27.90;;;13.87;;
3849;SDS011;1940;51.052;13.678;2022-11-13T15:39:04;33.90;;;15.00;;
3849;SDS011;1940;51.052;13.678;2022-11-13T15:41:30;31.80;;;15.13;;
3849;SDS011;1940;51.052;13.678;2022-11-13T15:43:58;26.97;;;13.70;;
3849;SDS011;1940;51.052;13.678;2022-11-13T15:46:25;30.30;;;14.27;;
3849;SDS011;1940;51.052;13.678;2022-11-13T15:48:51;28.87;;;14.60;;
3849;SDS011;1940;51.052;13.678;2022-11-13T15:51:27;31.80;;;15.63;;
3849;SDS011;1940;51.052;13.678;2022-11-13T15:56:51;31.43;;;15.00;;
3849;SDS011;1940;51.052;13.678;2022-11-13T15:59:17;30.53;;;14.10;;
3849;SDS011;1940;51.052;13.678;2022-11-13T16:01:43;30.53;;;14.83;;
3849;SDS011;1940;51.052;13.678;2022-11-13T16:04:08;32.03;;;15.07;;
3849;SDS011;1940;51.052;13.678;2022-11-13T16:06:37;32.17;;;15.47;;
3849;SDS011;1940;51.052;13.678;2022-11-13T16:09:04;32.73;;;16.53;;
3849;SDS011;1940;51.052;13.678;2022-11-13T16:11:30;29.40;;;14.70;;
3849;SDS011;1940;51.052;13.678;2022-11-13T16:13:57;36.30;;;17.50;;
3849;SDS011;1940;51.052;13.678;2022-11-13T16:16:23;37.10;;;17.47;;
3849;SDS011;1940;51.052;13.678;2022-11-13T16:18:51;34.20;;;17.27;;
3849;SDS011;1940;51.052;13.678;2022-11-13T16:21:17;30.80;;;15.00;;
3849;SDS011;1940;51.052;13.678;2022-11-13T16:23:44;36.10;;;16.30;;
3849;SDS011;1940;51.052;13.678;2022-11-13T16:26:17;33.57;;;16.13;;
3849;SDS011;1940;51.052;13.678;2022-11-13T16:28:45;31.97;;;14.47;;